createdAt,value
2017-02-13T00:05:03.920Z,1038.947
2017-02-13T00:08:03.867Z,1038.983
2017-02-13T00:11:14.389Z,1038.997
2017-02-13T00:14:19.369Z,1038.996
2017-02-13T00:20:29.532Z,1039.026
2017-02-13T00:23:33.833Z,1039.046
2017-02-13T00:26:39.307Z,1039.056
2017-02-13T00:29:42.852Z,1039.071
2017-02-13T00:32:48.377Z,1039.125
2017-02-13T00:35:52.408Z,1039.136
2017-02-13T00:38:56.905Z,1039.114
2017-02-13T00:42:01.407Z,1039.142
2017-02-13T00:48:09.179Z,1039.214
2017-02-13T00:51:14.454Z,1039.274
2017-02-13T00:54:19.399Z,1039.353
2017-02-13T01:00:27.882Z,1039.370
2017-02-13T01:06:38.394Z,1039.410
2017-02-13T01:09:40.017Z,1039.444
2017-02-13T01:12:47.715Z,1039.418
2017-02-13T01:25:06.047Z,1039.543
2017-02-13T01:28:09.708Z,1039.615
2017-02-13T01:34:17.885Z,1039.652
2017-02-13T01:37:20.881Z,1039.671
2017-02-13T01:40:24.353Z,1039.668
2017-02-13T01:43:27.673Z,1039.647
2017-02-13T01:46:31.500Z,1039.601
2017-02-13T01:49:35.030Z,1039.588
2017-02-13T01:55:41.972Z,1039.569
2017-02-13T01:58:45.130Z,1039.539
2017-02-13T02:01:49.413Z,1039.512
2017-02-13T02:04:52.588Z,1039.478
2017-02-13T02:07:57.159Z,1039.447
2017-02-13T02:10:59.852Z,1039.438
2017-02-13T02:14:03.484Z,1039.452
2017-02-13T02:20:11.230Z,1039.443
2017-02-13T02:23:15.074Z,1039.469
2017-02-13T02:26:18.787Z,1039.417
2017-02-13T02:29:22.077Z,1039.411
2017-02-13T02:32:20.596Z,1039.426
2017-02-13T02:35:20.385Z,1039.438
2017-02-13T02:38:31.152Z,1039.446
2017-02-13T02:41:35.443Z,1039.397
2017-02-13T02:44:40.168Z,1039.400
2017-02-13T02:47:39.861Z,1039.380
2017-02-13T02:53:55.997Z,1039.358
2017-02-13T02:56:53.524Z,1039.419
2017-02-13T03:00:04.550Z,1039.418
2017-02-13T03:03:08.952Z,1039.442
2017-02-13T03:15:32.795Z,1039.446
2017-02-13T03:43:10.448Z,1039.426
2017-02-13T03:46:13.521Z,1039.405
2017-02-13T03:52:11.649Z,1039.421
2017-02-13T03:55:22.002Z,1039.441
2017-02-13T03:58:27.187Z,1039.482
2017-02-13T04:01:31.598Z,1039.489
2017-02-13T04:04:36.219Z,1039.471
2017-02-13T04:07:40.773Z,1039.477
2017-02-13T04:10:45.469Z,1039.481
2017-02-13T04:13:51.251Z,1039.586
2017-02-13T04:16:55.279Z,1039.644
2017-02-13T04:19:58.491Z,1039.645
2017-02-13T04:23:03.344Z,1039.621
2017-02-13T04:26:08.753Z,1039.615
2017-02-13T04:29:12.641Z,1039.650
2017-02-13T04:32:11.370Z,1039.691
2017-02-13T04:35:22.788Z,1039.707
2017-02-13T04:38:25.889Z,1039.754
2017-02-13T04:41:30.689Z,1039.774
2017-02-13T04:44:35.245Z,1039.768
2017-02-13T04:47:39.836Z,1039.777
2017-02-13T04:50:38.714Z,1039.781
2017-02-13T04:53:50.767Z,1039.827
2017-02-13T04:56:54.914Z,1039.869
2017-02-13T04:59:54.724Z,1039.868
2017-02-13T05:02:59.298Z,1039.867
2017-02-13T05:09:12.979Z,1039.727
2017-02-13T05:15:15.113Z,1039.874
2017-02-13T05:18:19.655Z,1039.852
2017-02-13T05:24:29.836Z,1039.846
2017-02-13T05:27:35.102Z,1039.847
2017-02-13T05:30:37.841Z,1039.805
2017-02-13T05:36:47.538Z,1039.704
2017-02-13T05:39:52.192Z,1039.671
2017-02-13T05:52:12.203Z,1039.834
2017-02-13T05:55:10.455Z,1039.939
2017-02-13T05:58:17.870Z,1040.004
2017-02-13T06:01:18.685Z,1040.018
2017-02-13T06:04:18.245Z,1040.025
2017-02-13T06:07:28.678Z,1040.071
2017-02-13T06:10:32.554Z,1040.120
2017-02-13T06:13:37.300Z,1040.143
2017-02-13T06:16:42.018Z,1040.139
2017-02-13T06:19:46.695Z,1040.119
2017-02-13T06:22:51.274Z,1040.145
2017-02-13T06:25:53.018Z,1040.121
2017-02-13T06:32:06.175Z,1040.180
2017-02-13T06:35:10.650Z,1040.235
2017-02-13T06:38:15.269Z,1040.289
2017-02-13T06:41:19.885Z,1040.395
2017-02-13T06:44:24.047Z,1040.431
2017-02-13T06:50:39.973Z,1040.384
2017-02-13T06:53:38.112Z,1040.350
2017-02-13T06:59:47.420Z,1040.388
2017-02-13T07:02:51.987Z,1040.426
2017-02-13T07:05:56.583Z,1040.424
2017-02-13T07:08:57.694Z,1040.425
2017-02-13T07:12:05.877Z,1040.492
2017-02-13T07:15:10.565Z,1040.511
2017-02-13T07:18:10.143Z,1040.545
2017-02-13T07:21:21.314Z,1040.565
2017-02-13T07:24:25.133Z,1040.572
2017-02-13T07:27:24.948Z,1040.546
2017-02-13T07:30:35.265Z,1040.563
2017-02-13T07:33:39.731Z,1040.563
2017-02-13T07:36:50.358Z,1040.598
2017-02-13T07:39:49.502Z,1040.610
2017-02-13T07:42:53.775Z,1040.630
2017-02-13T07:49:02.758Z,1040.723
2017-02-13T07:52:07.947Z,1040.671
2017-02-13T07:55:12.632Z,1040.606
2017-02-13T07:58:14.656Z,1040.559
2017-02-13T08:01:19.035Z,1040.546
2017-02-13T08:07:22.812Z,1040.513
2017-02-13T08:13:38.174Z,1040.527
2017-02-13T08:16:42.886Z,1040.494
2017-02-13T08:19:47.097Z,1040.471
2017-02-13T08:22:51.753Z,1040.448
2017-02-13T08:25:56.471Z,1040.476
2017-02-13T08:32:07.605Z,1040.395
2017-02-13T08:35:09.951Z,1040.432
2017-02-13T08:38:15.007Z,1040.517
2017-02-13T08:41:18.952Z,1040.540
2017-02-13T08:44:23.534Z,1040.550
2017-02-13T08:47:27.351Z,1040.515
2017-02-13T08:50:35.087Z,1040.513
2017-02-13T08:53:34.478Z,1040.535
2017-02-13T08:56:35.823Z,1040.551
2017-02-13T08:59:44.090Z,1040.509
2017-02-13T09:02:48.950Z,1040.420
2017-02-13T09:09:02.585Z,1040.395
2017-02-13T09:12:05.720Z,1040.395
2017-02-13T09:18:14.891Z,1040.324
2017-02-13T09:21:18.925Z,1040.303
2017-02-13T09:27:28.759Z,1040.245
2017-02-13T09:30:33.235Z,1040.234
2017-02-13T09:33:37.296Z,1040.168
2017-02-13T09:36:41.481Z,1040.110
2017-02-13T09:39:45.496Z,1039.992
2017-02-13T09:42:49.305Z,1039.930
2017-02-13T09:45:47.436Z,1039.919
2017-02-13T09:48:58.129Z,1039.836
2017-02-13T09:52:02.352Z,1039.774
2017-02-13T09:55:06.573Z,1039.725
2017-02-13T09:58:10.501Z,1039.718
2017-02-13T10:01:14.800Z,1039.732
2017-02-13T10:04:20.330Z,1039.708
2017-02-13T10:07:24.590Z,1039.754
2017-02-13T10:10:27.233Z,1039.729
2017-02-13T10:13:29.247Z,1039.718
2017-02-13T10:16:32.126Z,1039.757
2017-02-13T10:19:27.546Z,1039.734
2017-02-13T10:22:39.870Z,1039.658
2017-02-13T10:25:48.951Z,1039.609
2017-02-13T10:28:53.403Z,1039.505
2017-02-13T10:31:57.721Z,1039.534
2017-02-13T10:35:03.067Z,1039.476
2017-02-13T10:38:02.358Z,1039.446
2017-02-13T10:41:07.515Z,1039.363
2017-02-13T10:44:12.114Z,1039.339
2017-02-13T10:47:12.114Z,1039.298
2017-02-13T10:50:23.373Z,1039.341
2017-02-13T10:53:28.226Z,1039.311
2017-02-13T10:56:33.499Z,1039.298
2017-02-13T10:59:33.687Z,1039.204
2017-02-13T11:05:55.773Z,1039.158
2017-02-13T11:08:54.239Z,1039.055
2017-02-13T11:12:05.355Z,1039.007
2017-02-13T11:15:09.612Z,1039.021
2017-02-13T11:18:14.201Z,1038.986
2017-02-13T11:21:18.141Z,1039.033
2017-02-13T11:24:17.700Z,1039.038
2017-02-13T11:27:28.934Z,1039.016
2017-02-13T11:30:33.365Z,1038.997
2017-02-13T11:33:37.537Z,1039.015
2017-02-13T11:36:38.920Z,1038.971
2017-02-13T11:39:41.972Z,1038.953
2017-02-13T11:42:47.523Z,1038.874
2017-02-13T11:45:52.798Z,1038.788
2017-02-13T11:48:58.017Z,1038.771
2017-02-13T11:55:09.292Z,1038.663
2017-02-13T11:58:13.739Z,1038.544
2017-02-13T12:01:19.354Z,1038.416
2017-02-13T12:04:25.271Z,1038.408
2017-02-13T12:07:25.387Z,1038.372
2017-02-13T12:10:37.224Z,1038.284
2017-02-13T12:13:40.440Z,1038.253
2017-02-13T12:16:46.189Z,1038.258
2017-02-13T12:19:52.086Z,1038.190
2017-02-13T12:22:57.341Z,1038.184
2017-02-13T12:26:01.053Z,1038.231
2017-02-13T12:29:06.454Z,1038.269
2017-02-13T12:32:17.813Z,1038.346
2017-02-13T12:35:16.153Z,1038.311
2017-02-13T12:38:21.370Z,1038.316
2017-02-13T12:41:32.691Z,1038.254
2017-02-13T12:44:32.327Z,1038.210
2017-02-13T12:47:36.863Z,1038.193
2017-02-13T12:50:42.169Z,1038.183
2017-02-13T12:53:53.631Z,1038.119
2017-02-13T12:56:50.960Z,1038.062
2017-02-13T12:59:56.135Z,1038.001
2017-02-13T13:03:03.205Z,1037.960
2017-02-13T13:06:06.579Z,1037.964
2017-02-13T13:09:11.990Z,1037.982
2017-02-13T13:12:17.309Z,1037.945
2017-02-13T13:15:22.581Z,1037.970
2017-02-13T13:18:27.884Z,1038.001
2017-02-13T13:21:33.179Z,1038.109
2017-02-13T13:24:38.511Z,1038.155
2017-02-13T13:30:49.369Z,1038.296
2017-02-13T13:33:54.585Z,1038.280
2017-02-13T13:36:59.819Z,1038.239
2017-02-13T13:40:04.997Z,1038.241
2017-02-13T13:43:10.126Z,1038.147
2017-02-13T13:46:20.962Z,1038.129
2017-02-13T13:49:20.454Z,1038.192
2017-02-13T13:55:26.190Z,1038.211
2017-02-13T13:58:31.158Z,1038.125
2017-02-13T14:01:42.236Z,1038.059
2017-02-13T14:04:41.317Z,1038.024
2017-02-13T14:07:52.536Z,1038.035
2017-02-13T14:10:51.825Z,1038.052
2017-02-13T14:14:03.126Z,1038.064
2017-02-13T14:17:01.357Z,1038.085
2017-02-13T14:20:06.507Z,1038.126
2017-02-13T14:26:22.904Z,1038.165
2017-02-13T14:29:27.399Z,1038.182
2017-02-13T14:32:25.817Z,1038.143
2017-02-13T14:41:47.653Z,1038.213
2017-02-13T14:44:45.880Z,1038.220
2017-02-13T14:47:50.752Z,1038.230
2017-02-13T14:50:55.799Z,1038.248
2017-02-13T15:00:08.982Z,1038.078
2017-02-13T15:06:23.293Z,1038.121
2017-02-13T15:09:27.050Z,1038.178
2017-02-13T15:12:28.502Z,1038.181
2017-02-13T15:15:33.806Z,1038.181
2017-02-13T15:18:32.070Z,1038.175
2017-02-13T15:27:47.656Z,1038.151
2017-02-13T15:30:58.007Z,1038.209
2017-02-13T15:33:57.287Z,1038.100
2017-02-13T15:37:08.239Z,1038.063
2017-02-13T15:40:12.423Z,1038.128
2017-02-13T15:43:16.444Z,1038.124
2017-02-13T15:46:20.689Z,1038.065
2017-02-13T15:49:25.845Z,1038.070
2017-02-13T15:52:23.941Z,1038.111
2017-02-13T15:55:34.967Z,1038.145
2017-02-13T15:58:33.235Z,1038.156
2017-02-13T16:01:43.727Z,1038.181
2017-02-13T16:07:54.312Z,1038.258
2017-02-13T16:10:52.465Z,1038.362
2017-02-13T16:14:03.264Z,1038.416
2017-02-13T16:17:01.418Z,1038.499
2017-02-13T16:20:12.288Z,1038.476
2017-02-13T16:23:16.145Z,1038.416
2017-02-13T16:26:14.231Z,1038.521
2017-02-13T16:29:24.982Z,1038.575
2017-02-13T16:32:28.695Z,1038.619
2017-02-13T16:38:36.330Z,1038.582
2017-02-13T16:44:38.292Z,1038.570
2017-02-13T16:47:42.985Z,1038.690
2017-02-13T16:50:53.990Z,1038.735
2017-02-13T16:53:51.987Z,1038.758
2017-02-13T16:56:56.852Z,1038.749
2017-02-13T17:00:01.632Z,1038.800
2017-02-13T17:03:06.242Z,1038.817
2017-02-13T17:06:11.065Z,1038.759
2017-02-13T17:09:15.827Z,1038.734
2017-02-13T17:12:26.786Z,1038.781
2017-02-13T17:15:25.063Z,1038.800
2017-02-13T17:18:35.939Z,1038.839
2017-02-13T17:21:34.188Z,1038.885
2017-02-13T17:24:44.995Z,1038.872
2017-02-13T17:27:43.045Z,1038.875
2017-02-13T17:30:47.913Z,1038.895
2017-02-13T17:33:52.517Z,1038.933
2017-02-13T17:36:57.248Z,1038.968
2017-02-13T17:40:07.949Z,1038.946
2017-02-13T17:43:06.148Z,1038.950
2017-02-13T17:46:10.895Z,1038.949
2017-02-13T17:49:17.165Z,1038.958
2017-02-13T17:52:19.375Z,1038.940
2017-02-13T17:55:24.251Z,1038.957
2017-02-13T17:58:24.191Z,1038.895
2017-02-13T18:01:34.380Z,1038.911
2017-02-13T18:04:34.101Z,1038.870
2017-02-13T18:07:39.613Z,1038.878
2017-02-13T18:10:50.456Z,1038.864
2017-02-13T18:13:54.930Z,1038.842
2017-02-13T18:17:00.495Z,1038.905
2017-02-13T18:20:05.105Z,1038.938
2017-02-13T18:23:04.810Z,1038.982
2017-02-13T18:26:20.604Z,1038.930
2017-02-13T18:29:24.421Z,1038.941
2017-02-13T18:32:29.369Z,1038.904
2017-02-13T18:35:33.284Z,1038.863
2017-02-13T18:38:38.217Z,1038.885
2017-02-13T18:44:41.735Z,1038.916
2017-02-13T18:47:46.474Z,1038.829
2017-02-13T18:50:57.272Z,1038.797
2017-02-13T18:56:59.722Z,1038.703
2017-02-13T19:00:04.407Z,1038.715
2017-02-13T19:03:15.090Z,1038.708
2017-02-13T19:06:14.141Z,1038.659
2017-02-13T19:09:12.311Z,1038.668
2017-02-13T19:12:23.895Z,1038.584
2017-02-13T19:15:28.102Z,1038.574
2017-02-13T19:18:32.936Z,1038.615
2017-02-13T19:24:42.044Z,1038.535
2017-02-13T19:27:46.403Z,1038.557
2017-02-13T19:30:45.951Z,1038.574
2017-02-13T19:33:57.687Z,1038.622
2017-02-13T19:40:06.147Z,1038.639
2017-02-13T19:46:15.690Z,1038.646
2017-02-13T19:49:26.442Z,1038.625
2017-02-13T19:52:30.211Z,1038.594
2017-02-13T19:55:34.171Z,1038.542
2017-02-13T19:58:38.271Z,1038.524
2017-02-13T20:01:41.943Z,1038.505
2017-02-13T20:04:47.117Z,1038.460
2017-02-13T20:07:44.778Z,1038.382
2017-02-13T20:10:55.631Z,1038.365
2017-02-13T20:13:53.205Z,1038.442
2017-02-13T20:16:57.568Z,1038.556
2017-02-13T20:20:08.167Z,1038.645
2017-02-13T20:23:12.229Z,1038.740
2017-02-13T20:26:09.879Z,1038.853
2017-02-13T20:29:17.372Z,1038.903
2017-02-13T20:32:18.622Z,1038.897
2017-02-13T20:38:28.585Z,1038.946
2017-02-13T20:41:33.255Z,1038.939
2017-02-13T20:44:32.783Z,1038.865
2017-02-13T20:47:38.163Z,1038.862
2017-02-13T20:50:51.518Z,1038.830
2017-02-13T20:53:52.044Z,1038.785
2017-02-13T21:00:02.105Z,1038.772
2017-02-13T21:03:06.957Z,1038.782
2017-02-13T21:06:17.825Z,1038.751
2017-02-13T21:09:21.387Z,1038.741
2017-02-13T21:12:20.179Z,1038.796
2017-02-13T21:15:19.703Z,1038.778
2017-02-13T21:18:30.242Z,1038.782
2017-02-13T21:21:34.597Z,1038.774
2017-02-13T21:24:39.460Z,1038.737
2017-02-13T21:27:44.261Z,1038.778
2017-02-13T21:30:50.497Z,1038.898
2017-02-13T21:33:56.852Z,1038.960
2017-02-13T21:36:56.587Z,1038.996
2017-02-13T21:39:53.442Z,1039.006
2017-02-13T21:43:04.502Z,1038.999
2017-02-13T21:46:08.583Z,1039.039
2017-02-13T21:49:14.365Z,1038.989
2017-02-13T21:52:17.785Z,1038.864
2017-02-13T21:55:23.467Z,1038.866
2017-02-13T21:58:23.855Z,1038.789
2017-02-13T22:01:29.511Z,1038.811
2017-02-13T22:04:31.992Z,1038.833
2017-02-13T22:07:36.881Z,1038.799
2017-02-13T22:10:41.599Z,1038.750
2017-02-13T22:13:46.225Z,1038.666
2017-02-13T22:16:48.602Z,1038.644
2017-02-13T22:19:53.393Z,1038.551
2017-02-13T22:23:02.013Z,1038.523
2017-02-13T22:26:02.925Z,1038.479
2017-02-13T22:29:07.739Z,1038.461
2017-02-13T22:35:17.907Z,1038.429
2017-02-13T22:38:22.571Z,1038.469
2017-02-13T22:41:27.284Z,1038.443
2017-02-13T22:44:26.911Z,1038.390
2017-02-13T22:47:37.564Z,1038.339
2017-02-13T22:56:53.159Z,1038.325
2017-02-13T22:59:58.117Z,1038.220
2017-02-13T23:09:18.341Z,1038.072
2017-02-13T23:15:26.444Z,1038.103
2017-02-13T23:18:26.103Z,1038.114
2017-02-13T23:21:34.262Z,1038.065
2017-02-13T23:24:39.410Z,1038.080
2017-02-13T23:27:42.709Z,1038.012
2017-02-13T23:33:50.449Z,1038.012
2017-02-13T23:39:53.835Z,1038.009
2017-02-13T23:42:58.511Z,1037.974
2017-02-13T23:46:09.607Z,1037.993
2017-02-13T23:49:10.567Z,1038.031
2017-02-13T23:55:18.527Z,1038.061
